createdAt,value
2023-04-20T00:02:21.720Z,6.65
2023-04-20T00:04:50.053Z,6.50
2023-04-20T00:07:18.217Z,6.50
2023-04-20T00:09:47.808Z,8.10
2023-04-20T00:12:15.997Z,5.13
2023-04-20T00:14:44.258Z,4.25
2023-04-20T00:17:12.460Z,8.43
2023-04-20T00:19:40.578Z,6.40
2023-04-20T00:22:08.706Z,4.63
2023-04-20T00:24:36.910Z,5.10
2023-04-20T00:27:06.897Z,7.00
2023-04-20T00:29:35.688Z,7.47
2023-04-20T00:32:03.858Z,8.82
2023-04-20T00:34:32.012Z,5.90
2023-04-20T00:37:00.241Z,5.20
2023-04-20T00:39:28.501Z,5.63
2023-04-20T00:41:56.867Z,5.78
2023-04-20T00:44:26.602Z,7.80
2023-04-20T00:46:56.644Z,4.95
2023-04-20T00:49:24.976Z,4.97
2023-04-20T00:51:54.235Z,6.20
2023-04-20T00:54:22.855Z,6.07
2023-04-20T00:56:51.977Z,6.82
2023-04-20T00:59:20.197Z,5.60
2023-04-20T01:01:49.883Z,5.50
2023-04-20T01:04:18.913Z,7.60
2023-04-20T01:06:47.117Z,6.15
2023-04-20T01:09:15.464Z,6.38
2023-04-20T01:11:43.880Z,5.95
2023-04-20T01:14:11.960Z,6.55
2023-04-20T01:16:40.289Z,6.20
2023-04-20T01:19:09.786Z,7.28
2023-04-20T01:21:38.267Z,6.20
2023-04-20T01:24:08.749Z,4.72
2023-04-20T01:26:37.094Z,7.13
2023-04-20T01:29:05.476Z,7.75
2023-04-20T01:31:33.703Z,9.45
2023-04-20T01:34:01.852Z,5.45
2023-04-20T01:36:29.929Z,8.30
2023-04-20T01:38:58.062Z,6.70
2023-04-20T01:41:28.080Z,7.28
2023-04-20T01:43:56.347Z,4.55
2023-04-20T01:46:24.750Z,8.02
2023-04-20T01:48:52.909Z,6.03
2023-04-20T01:51:21.300Z,6.43
2023-04-20T01:53:49.453Z,6.38
2023-04-20T01:56:17.726Z,5.03
2023-04-20T01:58:47.223Z,7.00
2023-04-20T02:01:15.369Z,5.28
2023-04-20T02:03:43.731Z,5.80
2023-04-20T02:06:12.111Z,7.85
2023-04-20T02:08:40.780Z,5.35
2023-04-20T02:11:08.992Z,6.40
2023-04-20T02:13:37.058Z,5.20
2023-04-20T02:16:07.440Z,10.15
2023-04-20T02:18:35.590Z,5.57
2023-04-20T02:21:03.828Z,5.03
2023-04-20T02:23:32.157Z,7.32
2023-04-20T02:26:00.344Z,5.95
2023-04-20T02:28:28.532Z,7.78
2023-04-20T02:30:56.704Z,10.90
2023-04-20T02:33:26.203Z,6.28
2023-04-20T02:35:54.674Z,5.40
2023-04-20T02:38:22.834Z,6.30
2023-04-20T02:40:51.554Z,8.05
2023-04-20T02:43:20.511Z,9.27
2023-04-20T02:45:48.700Z,12.45
2023-04-20T02:48:16.907Z,8.27
2023-04-20T02:50:46.568Z,9.07
2023-04-20T02:53:14.941Z,6.13
2023-04-20T02:55:43.048Z,12.27
2023-04-20T02:58:11.971Z,7.20
2023-04-20T03:00:40.123Z,7.35
2023-04-20T03:03:08.561Z,8.45
2023-04-20T03:05:36.718Z,6.55
2023-04-20T03:08:07.412Z,6.05
2023-04-20T03:10:35.924Z,11.00
2023-04-20T03:13:04.239Z,8.48
2023-04-20T03:15:32.498Z,10.02
2023-04-20T03:18:00.680Z,12.77
2023-04-20T03:20:29.084Z,7.57
2023-04-20T03:22:57.427Z,6.53
2023-04-20T03:25:27.337Z,8.63
2023-04-20T03:27:56.034Z,7.80
2023-04-20T03:30:24.380Z,12.25
2023-04-20T03:32:53.421Z,8.27
2023-04-20T03:35:22.434Z,6.72
2023-04-20T03:37:50.544Z,6.30
2023-04-20T03:40:18.706Z,11.10
2023-04-20T03:42:48.109Z,10.18
2023-04-20T03:45:16.492Z,8.77
2023-04-20T03:47:44.779Z,13.93
2023-04-20T03:50:13.112Z,9.32
2023-04-20T03:52:41.457Z,11.90
2023-04-20T03:55:10.893Z,12.52
2023-04-20T03:57:39.397Z,13.82
2023-04-20T04:00:11.178Z,9.95
2023-04-20T04:02:39.500Z,12.57
2023-04-20T04:05:08.967Z,14.23
2023-04-20T04:07:37.248Z,9.80
2023-04-20T04:10:26.726Z,11.05
2023-04-20T04:12:54.903Z,13.75
2023-04-20T04:15:24.677Z,8.45
2023-04-20T04:17:54.642Z,13.77
2023-04-20T04:20:22.806Z,9.00
2023-04-20T04:22:52.131Z,9.88
2023-04-20T04:25:20.559Z,11.75
2023-04-20T04:27:49.015Z,11.10
2023-04-20T04:30:17.773Z,8.68
2023-04-20T04:32:49.270Z,11.65
2023-04-20T04:35:17.765Z,8.52
2023-04-20T04:37:46.590Z,8.35
2023-04-20T04:40:15.121Z,8.52
2023-04-20T04:42:45.646Z,12.70
2023-04-20T04:45:14.940Z,13.65
2023-04-20T04:47:43.877Z,8.40
2023-04-20T04:50:14.304Z,6.13
2023-04-20T04:52:42.608Z,10.75
2023-04-20T04:55:11.211Z,12.73
2023-04-20T04:57:39.588Z,6.88
2023-04-20T05:00:12.083Z,17.40
2023-04-20T05:02:40.512Z,11.93
2023-04-20T05:05:10.298Z,10.98
2023-04-20T05:07:40.593Z,14.52
2023-04-20T05:10:09.987Z,9.20
2023-04-20T05:12:38.476Z,14.10
2023-04-20T05:15:07.987Z,18.42
2023-04-20T05:17:36.432Z,8.77
2023-04-20T05:20:06.507Z,12.82
2023-04-20T05:22:34.980Z,9.20
2023-04-20T05:25:06.780Z,9.20
2023-04-20T05:27:35.026Z,9.57
2023-04-20T05:30:18.902Z,11.43
2023-04-20T05:32:51.966Z,13.88
2023-04-20T05:35:21.458Z,11.75
2023-04-20T05:37:50.551Z,13.23
2023-04-20T05:40:20.600Z,14.82
2023-04-20T05:42:48.981Z,12.75
2023-04-20T05:45:17.487Z,15.10
2023-04-20T05:47:54.506Z,15.32
2023-04-20T05:50:23.421Z,11.77
2023-04-20T05:52:52.037Z,10.38
2023-04-20T05:55:23.006Z,12.30
2023-04-20T05:57:54.204Z,16.48
2023-04-20T06:00:25.874Z,15.85
2023-04-20T06:02:55.354Z,10.50
2023-04-20T06:05:24.412Z,20.85
2023-04-20T06:07:53.777Z,11.30
2023-04-20T06:10:24.243Z,12.75
2023-04-20T06:12:52.597Z,11.93
2023-04-20T06:15:20.875Z,14.85
2023-04-20T06:17:49.580Z,15.90
2023-04-20T06:20:18.066Z,13.23
2023-04-20T06:22:47.026Z,9.95
2023-04-20T06:25:15.865Z,11.70
2023-04-20T06:27:46.916Z,9.23
2023-04-20T06:30:16.328Z,8.65
2023-04-20T06:32:44.923Z,11.18
2023-04-20T06:35:13.277Z,13.80
2023-04-20T06:37:41.528Z,8.98
2023-04-20T06:40:10.379Z,6.43
2023-04-20T06:42:38.741Z,7.45
2023-04-20T06:45:09.662Z,9.02
2023-04-20T06:47:38.395Z,8.35
2023-04-20T06:50:10.044Z,9.95
2023-04-20T06:52:38.938Z,7.97
2023-04-20T06:55:07.624Z,7.53
2023-04-20T06:57:37.554Z,10.25
2023-04-20T07:00:09.958Z,11.02
2023-04-20T07:02:45.835Z,11.45
2023-04-20T07:05:14.829Z,6.90
2023-04-20T07:07:43.576Z,10.18
2023-04-20T07:10:14.201Z,9.82
2023-04-20T07:12:43.925Z,8.63
2023-04-20T07:15:14.260Z,5.35
2023-04-20T07:17:43.027Z,7.20
2023-04-20T07:20:11.486Z,4.95
2023-04-20T07:22:40.608Z,8.07
2023-04-20T07:25:11.117Z,7.82
2023-04-20T07:27:40.457Z,6.60
2023-04-20T07:30:10.914Z,8.00
2023-04-20T07:32:42.434Z,6.40
2023-04-20T07:35:12.167Z,6.65
2023-04-20T07:37:40.871Z,4.93
2023-04-20T07:40:10.575Z,8.20
2023-04-20T07:42:39.056Z,7.78
2023-04-20T07:45:08.364Z,7.13
2023-04-20T07:47:37.229Z,5.70
2023-04-20T07:50:08.876Z,5.10
2023-04-20T07:52:37.495Z,6.35
2023-04-20T07:55:08.264Z,7.55
2023-04-20T07:57:38.649Z,6.80
2023-04-20T08:00:10.023Z,7.10
2023-04-20T08:02:38.929Z,7.35
2023-04-20T08:05:10.246Z,7.07
2023-04-20T08:07:39.011Z,4.80
2023-04-20T08:10:08.587Z,6.00
2023-04-20T08:12:38.164Z,6.40
2023-04-20T08:15:08.036Z,10.50
2023-04-20T08:17:36.513Z,6.32
2023-04-20T08:20:06.419Z,5.47
2023-04-20T08:22:36.160Z,5.00
2023-04-20T08:25:04.497Z,5.30
2023-04-20T08:27:33.482Z,5.25
2023-04-20T08:30:04.441Z,4.40
2023-04-20T08:32:32.940Z,4.25
2023-04-20T08:35:01.974Z,4.88
2023-04-20T08:37:32.541Z,5.00
2023-04-20T08:40:03.804Z,4.07
2023-04-20T08:42:32.969Z,6.40
2023-04-20T08:45:01.325Z,5.93
2023-04-20T08:47:31.067Z,7.10
2023-04-20T08:50:01.775Z,6.18
2023-04-20T08:52:30.932Z,5.03
2023-04-20T08:54:59.628Z,4.53
2023-04-20T08:57:29.534Z,5.82
2023-04-20T08:59:58.997Z,6.00
2023-04-20T09:02:27.597Z,6.70
2023-04-20T09:05:06.280Z,6.88
2023-04-20T09:07:34.965Z,6.70
2023-04-20T09:10:03.963Z,7.60
2023-04-20T09:12:43.185Z,6.28
2023-04-20T09:15:12.598Z,6.75
2023-04-20T09:17:42.144Z,6.50
2023-04-20T09:20:11.528Z,5.50
2023-04-20T09:22:40.390Z,7.25
2023-04-20T09:25:16.458Z,4.13
2023-04-20T09:27:56.965Z,5.97
2023-04-20T09:30:25.918Z,5.20
2023-04-20T09:33:04.404Z,6.00
2023-04-20T09:35:34.141Z,6.65
2023-04-20T09:38:02.817Z,6.50
2023-04-20T09:40:31.549Z,7.35
2023-04-20T09:43:09.267Z,7.35
2023-04-20T09:45:40.508Z,6.32
2023-04-20T09:48:09.803Z,5.72
2023-04-20T09:50:48.601Z,6.07
2023-04-20T09:53:18.914Z,9.50
2023-04-20T09:55:49.583Z,5.63
2023-04-20T09:58:21.077Z,6.93
2023-04-20T10:00:50.500Z,6.57
2023-04-20T10:03:19.521Z,6.57
2023-04-20T10:05:48.158Z,6.05
2023-04-20T10:08:16.775Z,6.63
2023-04-20T10:10:48.068Z,7.05
2023-04-20T10:13:19.500Z,7.28
2023-04-20T10:15:53.139Z,7.07
2023-04-20T10:18:25.095Z,8.00
2023-04-20T10:21:06.382Z,8.80
2023-04-20T10:23:35.123Z,12.15
2023-04-20T10:26:03.929Z,6.18
2023-04-20T10:28:41.943Z,8.70
2023-04-20T10:31:14.918Z,7.53
2023-04-20T10:33:53.882Z,8.60
2023-04-20T10:36:27.451Z,11.73
2023-04-20T10:38:56.211Z,8.23
2023-04-20T10:41:24.998Z,9.77
2023-04-20T10:43:53.381Z,7.18
2023-04-20T10:46:24.630Z,10.48
2023-04-20T10:48:54.248Z,6.35
2023-04-20T10:51:23.352Z,6.72
2023-04-20T10:54:02.405Z,6.65
2023-04-20T10:56:38.243Z,8.80
2023-04-20T10:59:09.933Z,8.07
2023-04-20T11:01:41.198Z,6.47
2023-04-20T11:04:11.302Z,7.95
2023-04-20T11:06:40.833Z,6.32
2023-04-20T11:09:20.214Z,7.35
2023-04-20T11:12:01.600Z,5.32
2023-04-20T11:14:30.385Z,6.93
2023-04-20T11:17:01.784Z,6.90
2023-04-20T11:19:32.859Z,6.28
2023-04-20T11:22:02.692Z,6.28
2023-04-20T11:24:33.066Z,5.93
2023-04-20T11:27:04.695Z,5.95
2023-04-20T11:29:35.169Z,9.80
2023-04-20T11:32:07.371Z,7.53
2023-04-20T11:34:38.435Z,5.53
2023-04-20T11:37:07.715Z,6.10
2023-04-20T11:39:36.496Z,9.23
2023-04-20T11:42:06.022Z,4.88
2023-04-20T11:44:36.910Z,5.72
2023-04-20T11:47:08.245Z,5.28
2023-04-20T11:49:36.994Z,5.53
2023-04-20T11:52:05.641Z,5.22
2023-04-20T11:54:40.667Z,5.78
2023-04-20T11:57:08.951Z,7.75
2023-04-20T11:59:37.442Z,7.18
2023-04-20T12:02:07.741Z,6.97
2023-04-20T12:04:36.731Z,5.03
2023-04-20T12:07:05.081Z,5.57
2023-04-20T12:09:37.448Z,3.72
2023-04-20T12:12:07.685Z,4.93
2023-04-20T12:14:36.844Z,3.90
2023-04-20T12:17:07.275Z,5.53
2023-04-20T12:19:36.267Z,5.60
2023-04-20T12:22:04.643Z,7.20
2023-04-20T12:24:33.035Z,5.38
2023-04-20T12:27:03.875Z,3.78
2023-04-20T12:29:33.294Z,4.60
2023-04-20T12:32:02.789Z,5.65
2023-04-20T12:34:32.383Z,5.03
2023-04-20T12:37:01.276Z,3.78
2023-04-20T12:39:29.761Z,3.67
2023-04-20T12:41:58.303Z,5.07
2023-04-20T12:44:27.020Z,4.82
2023-04-20T12:46:55.872Z,7.43
2023-04-20T12:49:24.399Z,5.53
2023-04-20T12:51:53.938Z,6.07
2023-04-20T12:54:22.264Z,5.53
2023-04-20T12:56:50.998Z,5.53
2023-04-20T12:59:19.760Z,5.00
2023-04-20T13:01:48.861Z,7.95
2023-04-20T13:04:17.717Z,5.40
2023-04-20T13:06:46.425Z,5.70
2023-04-20T13:09:16.071Z,6.85
2023-04-20T13:11:44.694Z,5.00
2023-04-20T13:14:12.935Z,7.93
2023-04-20T13:16:41.725Z,7.15
2023-04-20T13:19:10.049Z,7.43
2023-04-20T13:21:38.657Z,6.80
2023-04-20T13:24:07.595Z,6.05
2023-04-20T13:26:38.025Z,7.43
2023-04-20T13:29:06.407Z,5.60
2023-04-20T13:31:34.870Z,5.90
2023-04-20T13:34:03.377Z,7.50
2023-04-20T13:36:32.850Z,6.65
2023-04-20T13:39:03.791Z,6.25
2023-04-20T13:41:32.450Z,6.50
2023-04-20T13:44:02.687Z,6.90
2023-04-20T13:46:31.285Z,7.32
2023-04-20T13:48:59.972Z,6.15
2023-04-20T13:51:30.415Z,7.88
2023-04-20T13:53:58.827Z,7.88
2023-04-20T13:56:27.394Z,5.78
2023-04-20T13:58:56.199Z,7.70
2023-04-20T14:01:27.063Z,6.28
2023-04-20T14:03:57.233Z,9.25
2023-04-20T14:06:25.750Z,6.22
2023-04-20T14:08:54.065Z,7.20
2023-04-20T14:11:22.905Z,9.27
2023-04-20T14:13:51.998Z,10.85
2023-04-20T14:16:20.380Z,7.65
2023-04-20T14:18:50.472Z,6.47
2023-04-20T14:21:18.804Z,8.45
2023-04-20T14:23:47.190Z,7.70
2023-04-20T14:26:15.377Z,7.05
2023-04-20T14:28:43.878Z,7.78
2023-04-20T14:31:12.162Z,9.52
2023-04-20T14:33:41.684Z,7.47
2023-04-20T14:36:11.659Z,7.53
2023-04-20T14:38:40.558Z,6.80
2023-04-20T14:41:09.412Z,10.68
2023-04-20T14:43:38.168Z,8.55
2023-04-20T14:46:07.476Z,9.73
2023-04-20T14:48:39.111Z,8.15
2023-04-20T14:51:07.596Z,8.13
2023-04-20T14:53:37.630Z,11.27
2023-04-20T14:56:06.241Z,8.07
2023-04-20T14:58:36.432Z,9.10
2023-04-20T15:01:04.925Z,10.85
2023-04-20T15:03:33.639Z,7.40
2023-04-20T15:06:03.979Z,9.75
2023-04-20T15:08:33.906Z,8.98
2023-04-20T15:11:05.254Z,10.52
2023-04-20T15:13:33.513Z,8.93
2023-04-20T15:16:01.971Z,9.10
2023-04-20T15:18:30.871Z,8.98
2023-04-20T15:20:59.582Z,8.90
2023-04-20T15:23:31.188Z,6.20
2023-04-20T15:26:01.136Z,8.20
2023-04-20T15:28:30.650Z,7.47
2023-04-20T15:30:59.024Z,7.00
2023-04-20T15:33:27.738Z,8.32
2023-04-20T15:35:56.406Z,9.32
2023-04-20T15:38:25.298Z,7.90
2023-04-20T15:40:55.447Z,9.77
2023-04-20T15:43:23.743Z,10.15
2023-04-20T15:45:53.776Z,7.07
2023-04-20T15:48:22.744Z,9.98
2023-04-20T15:50:53.011Z,7.68
2023-04-20T15:53:22.361Z,8.13
2023-04-20T15:55:51.564Z,8.90
2023-04-20T15:58:20.077Z,8.65
2023-04-20T16:00:49.314Z,9.93
2023-04-20T16:03:19.805Z,8.93
2023-04-20T16:05:48.655Z,8.07
2023-04-20T16:08:19.342Z,11.00
2023-04-20T16:10:47.820Z,9.00
2023-04-20T16:13:16.511Z,8.25
2023-04-20T16:15:45.118Z,7.22
2023-04-20T16:18:13.458Z,9.07
2023-04-20T16:20:43.292Z,7.07
2023-04-20T16:23:11.683Z,8.98
2023-04-20T16:25:40.255Z,11.10
2023-04-20T16:28:09.347Z,9.32
2023-04-20T16:30:37.772Z,10.70
2023-04-20T16:33:06.781Z,10.48
2023-04-20T16:35:35.242Z,9.90
2023-04-20T16:38:04.973Z,8.85
2023-04-20T16:40:34.342Z,8.80
2023-04-20T16:43:03.180Z,11.77
2023-04-20T16:45:32.321Z,7.82
2023-04-20T16:48:01.668Z,11.80
2023-04-20T16:50:30.702Z,9.23
2023-04-20T16:52:59.844Z,10.55
2023-04-20T16:55:29.803Z,8.88
2023-04-20T16:58:01.036Z,11.15
2023-04-20T17:00:31.105Z,10.70
2023-04-20T17:03:01.620Z,9.23
2023-04-20T17:05:30.577Z,10.18
2023-04-20T17:08:00.051Z,10.27
2023-04-20T17:10:31.327Z,10.45
2023-04-20T17:13:00.143Z,7.70
2023-04-20T17:15:30.351Z,9.35
2023-04-20T17:17:59.010Z,10.25
2023-04-20T17:20:27.661Z,11.38
2023-04-20T17:22:56.008Z,11.57
2023-04-20T17:25:24.580Z,9.32
2023-04-20T17:27:54.507Z,9.73
2023-04-20T17:30:23.247Z,9.52
2023-04-20T17:32:52.016Z,8.48
2023-04-20T17:35:21.304Z,12.05
2023-04-20T17:37:49.801Z,20.50
2023-04-20T17:40:18.370Z,12.30
2023-04-20T17:42:46.632Z,14.52
2023-04-20T17:45:17.319Z,12.85
2023-04-20T17:47:47.510Z,12.15
2023-04-20T17:50:16.746Z,11.90
2023-04-20T17:52:45.435Z,10.48
2023-04-20T17:55:14.249Z,10.80
2023-04-20T17:57:47.411Z,12.68
2023-04-20T18:00:19.164Z,12.13
2023-04-20T18:02:48.146Z,10.73
2023-04-20T18:05:17.156Z,11.93
2023-04-20T18:07:45.947Z,13.85
2023-04-20T18:10:16.004Z,13.15
2023-04-20T18:12:45.240Z,15.52
2023-04-20T18:15:14.272Z,10.90
2023-04-20T18:17:44.652Z,13.10
2023-04-20T18:20:13.807Z,12.50
2023-04-20T18:22:42.205Z,14.50
2023-04-20T18:25:11.237Z,13.32
2023-04-20T18:27:39.882Z,13.85
2023-04-20T18:30:09.584Z,16.88
2023-04-20T18:32:38.693Z,13.82
2023-04-20T18:35:09.766Z,12.52
2023-04-20T18:37:38.531Z,14.35
2023-04-20T18:40:08.347Z,14.13
2023-04-20T18:42:36.646Z,13.30
2023-04-20T18:45:06.347Z,14.23
2023-04-20T18:47:34.842Z,14.82
2023-04-20T18:50:03.003Z,16.23
2023-04-20T18:52:35.908Z,14.13
2023-04-20T18:55:04.894Z,12.50
2023-04-20T18:57:34.038Z,15.95
2023-04-20T19:00:07.310Z,13.60
2023-04-20T19:02:36.240Z,14.32
2023-04-20T19:05:05.135Z,14.13
2023-04-20T19:07:34.700Z,13.25
2023-04-20T19:10:02.923Z,16.23
2023-04-20T19:12:32.718Z,15.30
2023-04-20T19:15:01.470Z,16.42
2023-04-20T19:17:29.899Z,14.18
2023-04-20T19:19:58.144Z,13.00
2023-04-20T19:22:26.579Z,15.77
2023-04-20T19:24:56.452Z,14.02
2023-04-20T19:27:24.696Z,17.63
2023-04-20T19:29:53.968Z,15.23
2023-04-20T19:32:22.312Z,14.20
2023-04-20T19:34:52.562Z,15.68
2023-04-20T19:37:20.927Z,13.35
2023-04-20T19:39:49.367Z,17.75
2023-04-20T19:42:19.991Z,15.25
2023-04-20T19:44:48.868Z,15.25
2023-04-20T19:47:17.028Z,16.27
2023-04-20T19:49:45.818Z,18.65
2023-04-20T19:52:15.264Z,17.95
2023-04-20T19:54:44.021Z,17.00
2023-04-20T19:57:12.408Z,16.48
2023-04-20T19:59:42.687Z,13.82
2023-04-20T20:02:11.218Z,15.07
2023-04-20T20:04:39.853Z,15.90
2023-04-20T20:07:08.569Z,18.73
2023-04-20T20:09:37.745Z,18.45
2023-04-20T20:12:08.588Z,19.38
2023-04-20T20:14:37.683Z,20.30
2023-04-20T20:17:08.000Z,17.27
2023-04-20T20:19:36.630Z,20.73
2023-04-20T20:22:05.012Z,16.92
2023-04-20T20:24:33.321Z,17.42
2023-04-20T20:27:02.425Z,18.42
2023-04-20T20:29:31.208Z,20.50
2023-04-20T20:32:00.340Z,14.95
2023-04-20T20:34:30.234Z,18.73
2023-04-20T20:36:59.038Z,26.63
2023-04-20T20:39:27.953Z,20.75
2023-04-20T20:41:57.536Z,17.25
2023-04-20T20:44:28.179Z,16.65
2023-04-20T20:46:57.217Z,19.10
2023-04-20T20:49:26.088Z,16.17
2023-04-20T20:51:56.141Z,18.50
2023-04-20T20:54:24.675Z,19.20
2023-04-20T20:56:53.765Z,17.33
2023-04-20T20:59:25.424Z,17.90
2023-04-20T21:01:54.481Z,23.38
2023-04-20T21:04:23.146Z,22.15
2023-04-20T21:06:51.699Z,17.92
2023-04-20T21:09:21.536Z,18.88
2023-04-20T21:11:53.821Z,25.20
2023-04-20T21:14:22.624Z,17.85
2023-04-20T21:16:50.919Z,20.83
2023-04-20T21:19:19.606Z,20.90
2023-04-20T21:21:48.070Z,20.10
2023-04-20T21:24:16.261Z,18.23
2023-04-20T21:26:46.235Z,16.60
2023-04-20T21:29:14.651Z,18.60
2023-04-20T21:31:43.034Z,20.08
2023-04-20T21:34:13.807Z,21.38
2023-04-20T21:36:42.042Z,16.95
2023-04-20T21:39:10.064Z,17.48
2023-04-20T21:41:38.515Z,17.45
2023-04-20T21:44:08.244Z,17.08
2023-04-20T21:46:36.728Z,18.98
2023-04-20T21:49:05.435Z,16.48
2023-04-20T21:51:34.150Z,16.80
2023-04-20T21:54:02.913Z,15.18
2023-04-20T21:56:31.236Z,18.88
2023-04-20T21:58:59.829Z,16.55
2023-04-20T22:01:29.682Z,20.95
2023-04-20T22:03:58.322Z,17.42
2023-04-20T22:06:27.203Z,17.58
2023-04-20T22:08:56.513Z,18.13
2023-04-20T22:11:24.660Z,19.40
2023-04-20T22:13:53.036Z,19.15
2023-04-20T22:16:21.953Z,17.75
2023-04-20T22:18:52.114Z,18.67
2023-04-20T22:21:20.491Z,17.75
2023-04-20T22:23:48.809Z,17.13
2023-04-20T22:26:17.297Z,18.80
2023-04-20T22:28:45.549Z,19.83
2023-04-20T22:31:14.454Z,17.42
2023-04-20T22:33:42.621Z,16.85
2023-04-20T22:36:12.294Z,13.88
2023-04-20T22:38:41.201Z,18.23
2023-04-20T22:41:09.717Z,15.30
2023-04-20T22:43:38.002Z,17.05
2023-04-20T22:46:06.421Z,17.65
2023-04-20T22:48:35.386Z,13.13
2023-04-20T22:51:03.485Z,14.07
2023-04-20T22:53:34.117Z,25.40
2023-04-20T22:56:06.917Z,21.17
2023-04-20T22:58:35.332Z,20.55
2023-04-20T23:01:04.100Z,18.08
2023-04-20T23:03:32.651Z,18.63
2023-04-20T23:06:01.066Z,18.98
2023-04-20T23:08:29.669Z,15.23
2023-04-20T23:10:59.355Z,17.15
2023-04-20T23:13:27.502Z,18.60
2023-04-20T23:15:55.986Z,17.13
2023-04-20T23:18:24.034Z,17.00
2023-04-20T23:20:52.177Z,15.80
2023-04-20T23:23:20.509Z,18.00
2023-04-20T23:25:48.734Z,19.08
2023-04-20T23:28:18.759Z,15.48
2023-04-20T23:30:47.232Z,15.02
2023-04-20T23:33:16.061Z,16.67
2023-04-20T23:35:44.327Z,15.32
2023-04-20T23:38:12.709Z,19.98
2023-04-20T23:40:40.878Z,15.20
2023-04-20T23:43:09.215Z,18.42
2023-04-20T23:45:38.800Z,14.02
2023-04-20T23:48:07.508Z,12.95
2023-04-20T23:50:37.110Z,20.15
2023-04-20T23:53:05.871Z,17.05
2023-04-20T23:55:34.037Z,18.15
2023-04-20T23:58:02.252Z,17.33
